createdAt,value
2018-01-23T17:21:41.757Z,10.80
2018-01-23T17:24:10.462Z,10.79
2018-01-23T17:26:38.913Z,10.87
2018-01-23T17:29:07.391Z,10.83
2018-01-23T17:31:36.588Z,10.86
2018-01-23T17:34:05.798Z,10.87
2018-01-23T17:36:35.003Z,10.90
2018-01-23T17:39:03.522Z,10.91
2018-01-23T17:41:31.955Z,10.86
2018-01-23T17:44:01.201Z,10.84
2018-01-23T17:46:29.672Z,10.80
2018-01-23T17:48:58.287Z,10.81
2018-01-23T17:51:26.701Z,10.75
2018-01-23T17:53:56.000Z,10.86
2018-01-23T17:56:25.357Z,10.87
2018-01-23T17:58:53.826Z,10.74
2018-01-23T18:01:22.467Z,10.63
2018-01-23T18:03:51.021Z,10.74
2018-01-23T18:06:19.523Z,10.76
2018-01-23T18:08:48.105Z,10.62
2018-01-23T18:11:17.409Z,10.63
2018-01-23T18:13:46.877Z,10.66
2018-01-23T18:16:15.408Z,10.63
2018-01-23T18:18:43.929Z,10.67
2018-01-23T18:21:12.532Z,10.64
2018-01-23T18:23:41.148Z,10.59
2018-01-23T18:26:10.452Z,10.61
2018-01-23T18:28:39.036Z,10.65
2018-01-23T18:31:08.294Z,10.63
2018-01-23T18:33:36.771Z,10.55
2018-01-23T18:36:05.341Z,10.63
2018-01-23T18:38:33.821Z,10.72
2018-01-23T18:41:02.685Z,10.51
2018-01-23T18:43:31.933Z,10.56
2018-01-23T18:46:00.434Z,10.60
2018-01-23T18:48:28.911Z,10.60
2018-01-23T18:50:57.363Z,10.63
2018-01-23T18:53:26.088Z,10.64
2018-01-23T18:55:55.400Z,10.60
2018-01-23T18:58:23.938Z,10.72
2018-01-23T19:00:52.733Z,10.65
2018-01-23T19:03:21.240Z,10.70
2018-01-23T19:05:49.800Z,10.76
2018-01-23T19:08:18.303Z,10.64
2018-01-23T19:10:46.909Z,10.58
2018-01-23T19:13:15.547Z,10.55
2018-01-23T19:15:44.052Z,10.56
2018-01-23T19:18:12.528Z,10.63
2018-01-23T19:20:41.745Z,10.57
2018-01-23T19:23:11.732Z,10.56
2018-01-23T19:25:40.196Z,10.52
2018-01-23T19:28:08.754Z,10.53
2018-01-23T19:30:38.309Z,10.53
2018-01-23T19:33:06.764Z,10.54
2018-01-23T19:35:35.466Z,10.57
2018-01-23T19:38:03.981Z,10.49
2018-01-23T19:40:32.628Z,10.55
2018-01-23T19:43:01.111Z,10.54
2018-01-23T19:45:29.559Z,10.50
2018-01-23T19:47:58.942Z,10.62
2018-01-23T19:50:27.582Z,10.56
2018-01-23T19:52:56.049Z,10.64
2018-01-23T19:55:25.265Z,10.66
2018-01-23T19:57:53.769Z,10.78
2018-01-23T20:00:22.228Z,10.73
2018-01-23T20:02:50.699Z,10.65
2018-01-23T20:05:19.510Z,10.76
2018-01-23T20:07:48.062Z,10.79
2018-01-23T20:10:17.302Z,10.90
2018-01-23T20:12:45.829Z,10.94
2018-01-23T20:15:14.544Z,10.84
2018-01-23T20:17:43.013Z,10.87
2018-01-23T20:20:12.254Z,10.94
2018-01-23T20:22:40.738Z,10.93
2018-01-23T20:25:09.231Z,10.97
2018-01-23T20:27:37.701Z,10.98
2018-01-23T20:30:06.198Z,10.99
2018-01-23T20:32:35.557Z,11.04
2018-01-23T20:35:04.011Z,11.07
2018-01-23T20:37:33.282Z,11.05
2018-01-23T20:40:01.738Z,11.14
2018-01-23T20:42:30.233Z,11.13
2018-01-23T20:44:59.824Z,11.09
2018-01-23T20:47:28.416Z,11.10
2018-01-23T20:49:57.051Z,11.06
2018-01-23T20:52:25.565Z,11.01
2018-01-23T20:54:54.169Z,11.08
2018-01-23T20:57:22.644Z,11.21
2018-01-23T20:59:51.413Z,11.13
2018-01-23T21:02:19.937Z,11.19
2018-01-23T21:04:48.387Z,11.23
2018-01-23T21:07:16.853Z,11.19
2018-01-23T21:09:45.338Z,11.31
2018-01-23T21:12:13.829Z,11.31
2018-01-23T21:14:43.191Z,11.30
2018-01-23T21:17:11.666Z,11.29
2018-01-23T21:19:40.456Z,11.32
2018-01-23T21:22:09.754Z,11.25
2018-01-23T21:24:38.999Z,11.26
2018-01-23T21:27:07.865Z,11.27
2018-01-23T21:29:37.180Z,11.36
2018-01-23T21:32:05.772Z,11.37
2018-01-23T21:34:34.459Z,11.27
2018-01-23T21:37:03.090Z,11.34
2018-01-23T21:39:31.681Z,11.34
2018-01-23T21:42:00.196Z,11.40
2018-01-23T21:44:28.768Z,11.42
2018-01-23T21:46:58.058Z,11.38
2018-01-23T21:49:27.554Z,11.41
2018-01-23T21:51:56.123Z,11.47
2018-01-23T21:54:24.631Z,11.48
2018-01-23T21:56:53.855Z,11.45
2018-01-23T21:59:22.316Z,11.46
2018-01-23T22:01:51.573Z,11.44
2018-01-23T22:04:20.202Z,11.45
2018-01-23T22:06:49.464Z,11.42
2018-01-23T22:09:17.998Z,11.43
2018-01-23T22:11:46.433Z,11.45
2018-01-23T22:14:14.972Z,11.48
2018-01-23T22:16:43.542Z,11.49
2018-01-23T22:19:11.989Z,11.41
2018-01-23T22:21:40.492Z,11.56
2018-01-23T22:24:09.780Z,11.55
2018-01-23T22:26:39.091Z,11.60
2018-01-23T22:29:08.330Z,11.55
2018-01-23T22:31:38.728Z,11.46
2018-01-23T22:34:08.035Z,11.49
2018-01-23T22:36:37.389Z,11.63
2018-01-23T22:39:06.736Z,11.64
2018-01-23T22:41:35.952Z,11.70
2018-01-23T22:44:05.185Z,11.63
2018-01-23T22:46:33.797Z,11.76
2018-01-23T22:49:02.302Z,11.71
2018-01-23T22:51:32.282Z,11.72
2018-01-23T22:54:00.818Z,11.83
2018-01-23T22:56:30.038Z,11.81
2018-01-23T22:58:58.606Z,11.81
2018-01-23T23:01:27.931Z,11.87
2018-01-23T23:03:56.625Z,11.91
2018-01-23T23:06:25.230Z,11.94
2018-01-23T23:08:53.950Z,11.93
2018-01-23T23:11:22.448Z,11.92
2018-01-23T23:13:51.709Z,11.98
2018-01-23T23:16:20.380Z,11.88
2018-01-23T23:18:49.027Z,11.92
2018-01-23T23:21:18.360Z,12.01
2018-01-23T23:23:46.850Z,11.96
2018-01-23T23:26:15.430Z,11.97
2018-01-23T23:28:43.965Z,11.98
2018-01-23T23:31:13.273Z,11.96
2018-01-23T23:33:41.807Z,12.00
2018-01-23T23:36:10.307Z,11.95
2018-01-23T23:38:38.700Z,12.02
2018-01-23T23:41:07.134Z,11.97
2018-01-23T23:43:35.545Z,11.99
2018-01-23T23:46:03.982Z,11.99
2018-01-23T23:48:33.164Z,12.03
2018-01-23T23:51:02.335Z,12.07
2018-01-23T23:53:30.956Z,11.98
2018-01-23T23:56:00.125Z,11.98
2018-01-23T23:58:28.654Z,11.99
